Terminal Aerodrome Forecast
Issued by NWS

Home | Current Version | Previous Version | Text Only | Print | Product List | Glossary On
Versions: 1 2 3 4 5 6 7 8 9 10 11 12 13 14 15
000
FTUS45 KABQ 052325
TAFFMN
TAF
KFMN 052325Z 0600/0624 29010KT P6SM VCTS SCT070CB BKN130
     FM060500 33007KT P6SM VCSH BKN080
     FM060800 07005KT P6SM SCT070 BKN150
     FM061500 28007KT P6SM SCT070 SCT150
     FM062200 29015KT P6SM VCTS SCT080CB SCT150=

USA.gov is the U.S. government's official web portal to all federal, state and local government web resources and services.